createdAt,value
2019-05-10T00:01:46.053Z,1.47
2019-05-10T00:04:33.376Z,1.45
2019-05-10T00:07:20.911Z,1.42
2019-05-10T00:09:49.571Z,1.50
2019-05-10T00:12:20.614Z,1.70
2019-05-10T00:14:51.578Z,1.30
2019-05-10T00:17:21.207Z,1.47
2019-05-10T00:19:50.701Z,1.40
2019-05-10T00:22:21.490Z,1.42
2019-05-10T00:27:22.236Z,1.47
2019-05-10T00:29:51.624Z,1.55
2019-05-10T00:32:20.959Z,1.40
2019-05-10T00:34:50.275Z,1.60
2019-05-10T00:37:19.648Z,1.60
2019-05-10T00:39:48.965Z,1.30
2019-05-10T00:42:18.320Z,1.30
2019-05-10T00:44:47.724Z,1.05
2019-05-10T00:47:17.042Z,1.32
2019-05-10T00:49:46.408Z,1.07
2019-05-10T00:52:16.898Z,1.17
2019-05-10T00:54:46.301Z,1.10
2019-05-10T00:57:15.619Z,1.10
2019-05-10T00:59:44.979Z,1.00
2019-05-10T01:02:14.325Z,1.00
2019-05-10T01:04:44.728Z,0.80
2019-05-10T01:07:14.057Z,1.20
2019-05-10T01:09:43.415Z,1.00
2019-05-10T01:12:12.781Z,0.82
2019-05-10T01:14:42.166Z,0.90
2019-05-10T01:17:11.497Z,1.10
2019-05-10T01:19:40.999Z,1.12
2019-05-10T01:22:10.324Z,1.10
2019-05-10T01:24:39.684Z,1.02
2019-05-10T01:27:09.006Z,1.32
2019-05-10T01:29:38.361Z,1.55
2019-05-10T01:32:07.977Z,1.60
2019-05-10T01:34:37.402Z,1.30
2019-05-10T01:37:06.841Z,1.57
2019-05-10T01:39:36.227Z,1.72
2019-05-10T01:42:05.595Z,1.62
2019-05-10T01:44:34.990Z,1.67
2019-05-10T01:47:04.391Z,1.72
2019-05-10T01:49:33.725Z,1.25
2019-05-10T01:52:03.043Z,1.90
2019-05-10T01:54:32.408Z,1.62
2019-05-10T01:57:01.809Z,2.12
2019-05-10T01:59:31.143Z,2.08
2019-05-10T02:02:00.467Z,2.30
2019-05-10T02:04:29.819Z,2.12
2019-05-10T02:06:59.173Z,2.60
2019-05-10T02:09:28.600Z,1.90
2019-05-10T02:11:58.051Z,2.45
2019-05-10T02:14:27.366Z,2.47
2019-05-10T02:16:56.723Z,2.40
2019-05-10T02:19:26.177Z,2.47
2019-05-10T02:21:55.599Z,2.60
2019-05-10T02:24:24.919Z,3.10
2019-05-10T02:26:54.245Z,3.50
2019-05-10T02:29:23.579Z,2.65
2019-05-10T02:31:52.910Z,3.67
2019-05-10T02:34:22.242Z,3.75
2019-05-10T02:36:51.591Z,4.30
2019-05-10T02:39:21.028Z,4.85
2019-05-10T02:41:50.451Z,5.37
2019-05-10T02:44:19.855Z,5.97
2019-05-10T02:46:49.181Z,5.12
2019-05-10T02:49:18.591Z,5.20
2019-05-10T02:51:47.980Z,5.75
2019-05-10T02:54:17.306Z,6.95
2019-05-10T02:56:47.217Z,9.48
2019-05-10T02:59:17.276Z,9.15
2019-05-10T03:01:46.790Z,8.65
2019-05-10T03:04:16.213Z,9.95
2019-05-10T03:06:45.675Z,8.30
2019-05-10T03:09:15.071Z,8.30
2019-05-10T03:11:49.074Z,10.18
2019-05-10T03:14:19.265Z,9.05
2019-05-10T03:16:51.173Z,6.90
2019-05-10T03:19:21.941Z,8.28
2019-05-10T03:21:57.921Z,9.93
2019-05-10T03:24:28.109Z,4.50
2019-05-10T03:26:57.655Z,6.90
2019-05-10T03:29:27.077Z,8.05
2019-05-10T03:31:56.677Z,9.50
2019-05-10T03:34:26.118Z,9.88
2019-05-10T03:36:55.588Z,9.03
2019-05-10T03:39:24.923Z,9.33
2019-05-10T03:41:54.323Z,7.12
2019-05-10T03:44:23.752Z,7.03
2019-05-10T03:46:53.186Z,7.25
2019-05-10T03:49:22.655Z,8.70
2019-05-10T03:51:52.142Z,6.78
2019-05-10T03:54:21.500Z,8.63
2019-05-10T03:57:09.210Z,7.97
2019-05-10T03:59:22.003Z,7.73
2019-05-10T04:01:51.384Z,5.05
2019-05-10T04:04:20.750Z,7.08
2019-05-10T04:06:50.248Z,8.18
2019-05-10T04:09:19.648Z,6.87
2019-05-10T04:11:48.982Z,7.15
2019-05-10T04:14:18.303Z,5.25
2019-05-10T04:16:47.670Z,9.35
2019-05-10T04:19:18.169Z,10.82
2019-05-10T04:21:47.611Z,11.60
2019-05-10T04:24:17.042Z,7.37
2019-05-10T04:26:46.446Z,5.45
2019-05-10T04:29:15.798Z,11.20
2019-05-10T04:31:45.220Z,10.85
2019-05-10T04:34:14.789Z,9.83
2019-05-10T04:36:44.211Z,10.40
2019-05-10T04:39:13.633Z,7.15
2019-05-10T04:41:43.062Z,7.28
2019-05-10T04:44:12.458Z,7.87
2019-05-10T04:46:41.786Z,7.67
2019-05-10T04:49:11.119Z,7.60
2019-05-10T04:51:40.443Z,7.03
2019-05-10T04:54:09.808Z,6.50
2019-05-10T04:56:39.232Z,6.75
2019-05-10T04:59:08.546Z,3.95
2019-05-10T05:01:37.916Z,5.15
2019-05-10T05:04:07.340Z,6.85
2019-05-10T05:06:36.746Z,6.17
2019-05-10T05:09:07.142Z,6.67
2019-05-10T05:11:36.523Z,6.72
2019-05-10T05:14:09.294Z,4.95
2019-05-10T05:16:36.916Z,5.43
2019-05-10T05:19:06.347Z,8.00
2019-05-10T05:21:35.682Z,6.30
2019-05-10T05:24:05.014Z,4.75
2019-05-10T05:26:34.341Z,6.80
2019-05-10T05:29:03.670Z,6.80
2019-05-10T05:31:33.024Z,5.33
2019-05-10T05:34:05.062Z,6.33
2019-05-10T05:36:33.463Z,4.10
2019-05-10T05:39:04.099Z,2.95
2019-05-10T05:41:47.882Z,6.15
2019-05-10T05:44:04.585Z,6.47
2019-05-10T05:46:33.925Z,6.87
2019-05-10T05:49:03.248Z,4.03
2019-05-10T05:51:32.691Z,3.95
2019-05-10T05:54:04.110Z,5.00
2019-05-10T05:56:33.879Z,3.90
2019-05-10T05:59:03.271Z,4.00
2019-05-10T06:01:32.631Z,5.10
2019-05-10T06:04:06.286Z,4.60
2019-05-10T06:06:33.086Z,3.13
2019-05-10T06:09:04.136Z,3.37
2019-05-10T06:11:35.818Z,5.87
2019-05-10T06:14:10.670Z,5.23
2019-05-10T06:19:05.066Z,3.25
2019-05-10T06:21:34.391Z,3.72
2019-05-10T06:24:07.307Z,3.98
2019-05-10T06:26:34.942Z,3.35
2019-05-10T06:29:10.152Z,5.42
2019-05-10T06:31:35.787Z,5.33
2019-05-10T06:34:05.163Z,25.32
2019-05-10T06:36:34.671Z,8.28
2019-05-10T06:39:06.636Z,4.60
2019-05-10T06:44:04.622Z,5.17
2019-05-10T06:46:33.993Z,10.23
2019-05-10T06:49:08.306Z,9.13
2019-05-10T06:51:34.455Z,5.23
2019-05-10T06:54:03.877Z,3.87
2019-05-10T06:56:33.278Z,6.70
2019-05-10T06:59:13.177Z,4.33
2019-05-10T07:01:38.205Z,5.50
2019-05-10T07:04:04.706Z,5.17
2019-05-10T07:06:34.065Z,4.03
2019-05-10T07:09:05.358Z,7.05
2019-05-10T07:11:35.071Z,4.28
2019-05-10T07:14:04.568Z,6.87
2019-05-10T07:16:33.996Z,4.03
2019-05-10T07:19:03.443Z,4.40
2019-05-10T07:21:32.834Z,6.22
2019-05-10T07:24:02.154Z,3.87
2019-05-10T07:26:31.523Z,5.90
2019-05-10T07:29:00.957Z,4.05
2019-05-10T07:31:30.347Z,5.17
2019-05-10T07:34:00.779Z,4.95
2019-05-10T07:36:30.934Z,6.10
2019-05-10T07:39:02.749Z,5.60
2019-05-10T07:41:32.694Z,6.90
2019-05-10T07:44:07.721Z,6.10
2019-05-10T07:46:33.185Z,4.10
2019-05-10T07:49:02.592Z,4.37
2019-05-10T07:51:31.949Z,3.90
2019-05-10T07:54:04.473Z,5.80
2019-05-10T07:56:32.435Z,4.63
2019-05-10T07:59:01.872Z,6.17
2019-05-10T08:01:32.728Z,6.90
2019-05-10T08:04:02.452Z,4.45
2019-05-10T08:06:40.345Z,5.08
2019-05-10T08:09:06.427Z,4.40
2019-05-10T08:11:34.084Z,4.55
2019-05-10T08:14:06.150Z,7.87
2019-05-10T08:16:34.577Z,5.00
2019-05-10T08:19:04.170Z,6.15
2019-05-10T08:21:33.506Z,4.12
2019-05-10T08:24:05.124Z,6.03
2019-05-10T08:26:33.875Z,7.77
2019-05-10T08:29:07.638Z,4.53
2019-05-10T08:31:40.285Z,5.67
2019-05-10T08:34:05.403Z,5.80
2019-05-10T08:36:37.398Z,7.53
2019-05-10T08:39:13.773Z,7.23
2019-05-10T08:41:43.280Z,6.78
2019-05-10T08:44:19.532Z,3.87
2019-05-10T08:46:48.709Z,3.87
2019-05-10T08:49:21.998Z,5.08
2019-05-10T08:51:53.844Z,5.70
2019-05-10T08:54:26.327Z,6.25
2019-05-10T08:57:01.120Z,6.13
2019-05-10T08:59:26.796Z,6.87
2019-05-10T09:01:56.312Z,4.27
2019-05-10T09:04:25.739Z,6.40
2019-05-10T09:06:59.539Z,4.55
2019-05-10T09:09:26.131Z,37.03
2019-05-10T09:11:57.677Z,6.72
2019-05-10T09:14:27.284Z,9.73
2019-05-10T09:17:01.733Z,5.53
2019-05-10T09:19:37.341Z,29.93
2019-05-10T09:21:58.791Z,5.60
2019-05-10T09:24:28.150Z,12.18
2019-05-10T09:26:57.586Z,3.27
2019-05-10T09:29:27.390Z,13.88
2019-05-10T09:32:01.049Z,6.63
2019-05-10T09:34:29.119Z,5.63
2019-05-10T09:36:58.450Z,3.52
2019-05-10T09:39:27.804Z,4.03
2019-05-10T09:41:57.238Z,5.33
2019-05-10T09:44:26.641Z,2.80
2019-05-10T09:46:56.077Z,1.87
2019-05-10T09:49:25.424Z,1.37
2019-05-10T09:51:55.008Z,1.92
2019-05-10T09:54:30.968Z,2.00
2019-05-10T09:56:57.562Z,1.70
2019-05-10T09:59:27.835Z,2.47
2019-05-10T10:01:57.363Z,1.30
2019-05-10T10:04:28.167Z,1.35
2019-05-10T10:06:58.138Z,1.60
2019-05-10T10:09:33.914Z,1.25
2019-05-10T10:12:03.112Z,0.82
2019-05-10T10:14:37.990Z,1.00
2019-05-10T10:17:03.220Z,1.00
2019-05-10T10:19:33.915Z,1.70
2019-05-10T10:22:05.705Z,0.95
2019-05-10T10:24:37.680Z,1.42
2019-05-10T10:27:07.474Z,1.40
2019-05-10T10:29:38.687Z,0.63
2019-05-10T10:32:08.055Z,0.70
2019-05-10T10:34:42.658Z,1.17
2019-05-10T10:37:08.613Z,1.40
2019-05-10T10:39:38.044Z,0.88
2019-05-10T10:42:08.748Z,0.75
2019-05-10T10:44:38.515Z,0.95
2019-05-10T10:47:08.358Z,0.90
2019-05-10T10:49:38.464Z,0.95
2019-05-10T10:52:11.177Z,0.90
2019-05-10T10:54:39.936Z,1.10
2019-05-10T10:57:09.562Z,1.47
2019-05-10T10:59:38.883Z,1.75
2019-05-10T11:02:31.553Z,0.98
2019-05-10T11:04:46.138Z,1.00
2019-05-10T11:07:11.371Z,0.90
2019-05-10T11:09:41.041Z,1.20
2019-05-10T11:12:14.794Z,2.83
2019-05-10T11:14:45.342Z,1.73
2019-05-10T11:17:12.611Z,1.07
2019-05-10T11:19:41.944Z,1.10
2019-05-10T11:22:11.386Z,1.20
2019-05-10T11:24:40.875Z,1.32
2019-05-10T11:27:12.963Z,2.05
2019-05-10T11:29:41.835Z,1.40
2019-05-10T11:32:16.295Z,1.35
2019-05-10T11:34:42.358Z,1.43
2019-05-10T11:37:11.678Z,1.00
2019-05-10T11:39:46.941Z,0.80
2019-05-10T11:42:15.534Z,0.90
2019-05-10T11:44:50.030Z,0.80
2019-05-10T11:47:23.982Z,0.80
2019-05-10T11:49:46.523Z,1.05
2019-05-10T11:52:15.866Z,0.88
2019-05-10T11:54:45.308Z,0.70
2019-05-10T11:57:14.736Z,0.93
2019-05-10T11:59:44.163Z,0.82
2019-05-10T12:04:44.579Z,0.90
2019-05-10T12:07:14.870Z,0.95
2019-05-10T12:09:44.228Z,0.68
2019-05-10T12:12:13.563Z,0.82
2019-05-10T12:14:43.660Z,0.60
2019-05-10T12:17:14.474Z,0.87
2019-05-10T12:19:47.968Z,1.25
2019-05-10T12:22:15.950Z,1.10
2019-05-10T12:25:00.507Z,0.80
2019-05-10T12:26:03.777Z,0.90
2019-05-10T12:27:24.855Z,0.80
2019-05-10T12:29:55.491Z,0.90
2019-05-10T12:32:21.181Z,0.93
2019-05-10T12:34:51.884Z,0.82
2019-05-10T12:37:20.778Z,0.77
2019-05-10T12:39:52.876Z,0.90
2019-05-10T12:42:21.871Z,0.70
2019-05-10T12:44:52.027Z,0.70
2019-05-10T12:47:22.400Z,1.00
2019-05-10T12:49:53.829Z,0.70
2019-05-10T12:52:28.487Z,1.10
2019-05-10T12:54:54.043Z,1.20
2019-05-10T12:57:23.431Z,0.78
2019-05-10T12:59:52.779Z,0.50
2019-05-10T13:02:22.135Z,1.00
2019-05-10T13:04:52.684Z,1.02
2019-05-10T13:07:22.275Z,1.32
2019-05-10T13:10:02.703Z,1.20
2019-05-10T13:12:22.797Z,1.20
2019-05-10T13:14:53.014Z,1.02
2019-05-10T13:17:22.731Z,1.22
2019-05-10T13:19:58.247Z,1.27
2019-05-10T13:22:23.824Z,0.90
2019-05-10T13:24:53.231Z,1.00
2019-05-10T13:27:22.618Z,1.00
2019-05-10T13:29:53.488Z,0.98
2019-05-10T13:32:23.624Z,0.93
2019-05-10T13:34:53.994Z,1.23
2019-05-10T13:37:25.199Z,0.88
2019-05-10T13:39:58.338Z,0.90
2019-05-10T13:42:25.444Z,0.87
2019-05-10T13:44:54.880Z,1.02
2019-05-10T13:47:24.307Z,0.80
2019-05-10T13:49:53.707Z,1.10
2019-05-10T13:52:29.928Z,1.10
2019-05-10T13:54:54.087Z,0.97
2019-05-10T13:57:23.479Z,0.60
2019-05-10T13:59:55.262Z,0.90
2019-05-10T14:02:32.524Z,0.50
2019-05-10T14:04:54.934Z,0.90
2019-05-10T14:07:24.266Z,0.60
2019-05-10T14:09:53.598Z,0.90
2019-05-10T14:12:23.928Z,0.65
2019-05-10T14:14:55.368Z,0.85
2019-05-10T14:17:25.124Z,0.53
2019-05-10T14:19:54.611Z,0.90
2019-05-10T14:22:23.938Z,0.90
2019-05-10T14:24:58.546Z,0.88
2019-05-10T14:27:24.320Z,1.20
2019-05-10T14:29:53.736Z,0.80
2019-05-10T14:32:23.066Z,1.05
2019-05-10T14:34:52.411Z,1.10
2019-05-10T14:37:21.775Z,0.78
2019-05-10T14:39:52.168Z,0.98
2019-05-10T14:42:23.827Z,0.80
2019-05-10T14:44:52.628Z,1.10
2019-05-10T14:47:21.996Z,0.85
2019-05-10T14:49:51.382Z,0.90
2019-05-10T14:52:22.621Z,0.98
2019-05-10T14:54:55.431Z,1.17
2019-05-10T14:57:22.871Z,0.50
2019-05-10T14:59:52.220Z,0.33
2019-05-10T15:02:22.631Z,0.85
2019-05-10T15:04:52.667Z,0.80
2019-05-10T15:07:22.030Z,0.70
2019-05-10T15:09:54.298Z,1.47
2019-05-10T15:12:22.908Z,0.80
2019-05-10T15:14:52.497Z,0.78
2019-05-10T15:17:23.000Z,0.72
2019-05-10T15:19:57.589Z,0.85
2019-05-10T15:22:24.875Z,0.53
2019-05-10T15:24:55.519Z,1.67
2019-05-10T15:27:24.875Z,0.47
2019-05-10T15:29:58.678Z,0.98
2019-05-10T15:32:25.388Z,1.75
2019-05-10T15:35:06.084Z,4.67
2019-05-10T15:37:25.753Z,2.50
2019-05-10T15:39:55.080Z,1.05
2019-05-10T15:42:24.398Z,1.00
2019-05-10T15:44:53.765Z,1.20
2019-05-10T15:47:23.164Z,1.15
2019-05-10T15:49:54.565Z,1.12
2019-05-10T15:52:23.708Z,0.63
2019-05-10T15:54:53.278Z,0.70
2019-05-10T15:57:22.823Z,1.00
2019-05-10T15:59:56.923Z,1.17
2019-05-10T16:02:23.280Z,1.22
2019-05-10T16:04:52.697Z,1.20
2019-05-10T16:07:22.082Z,0.90
2019-05-10T16:09:54.811Z,0.80
2019-05-10T16:12:22.510Z,2.35
2019-05-10T16:14:51.878Z,1.45
2019-05-10T16:17:23.967Z,2.65
2019-05-10T16:19:59.493Z,1.40
2019-05-10T16:22:25.413Z,1.30
2019-05-10T16:25:00.786Z,1.05
2019-05-10T16:27:25.437Z,1.20
2019-05-10T16:29:54.860Z,1.00
2019-05-10T16:32:29.460Z,1.00
2019-05-10T16:34:55.323Z,1.10
2019-05-10T16:37:24.776Z,1.30
2019-05-10T16:39:54.247Z,1.05
2019-05-10T16:42:27.770Z,1.10
2019-05-10T16:44:54.739Z,1.13
2019-05-10T16:47:24.135Z,1.10
2019-05-10T16:49:55.086Z,1.10
2019-05-10T16:52:26.337Z,1.10
2019-05-10T16:54:57.855Z,1.40
2019-05-10T16:57:32.046Z,1.40
2019-05-10T17:00:02.172Z,0.87
2019-05-10T17:02:28.960Z,0.98
2019-05-10T17:04:58.591Z,1.32
2019-05-10T17:07:28.020Z,0.88
2019-05-10T17:09:57.415Z,0.88
2019-05-10T17:12:27.732Z,0.82
2019-05-10T17:15:02.818Z,1.10
2019-05-10T17:17:31.414Z,0.78
2019-05-10T17:19:59.944Z,0.70
2019-05-10T17:22:30.372Z,0.75
2019-05-10T17:25:03.167Z,0.78
2019-05-10T17:27:30.822Z,0.70
2019-05-10T17:30:00.168Z,0.70
2019-05-10T17:32:29.603Z,0.80
2019-05-10T17:35:04.027Z,0.90
2019-05-10T17:37:35.615Z,0.97
2019-05-10T17:40:04.704Z,0.93
2019-05-10T17:42:35.549Z,1.00
2019-05-10T17:45:04.454Z,1.03
2019-05-10T17:47:34.020Z,0.90
2019-05-10T17:50:05.086Z,0.80
2019-05-10T17:52:34.454Z,1.00
2019-05-10T17:55:11.042Z,0.93
2019-05-10T17:57:38.543Z,1.17
2019-05-10T18:00:08.980Z,1.50
2019-05-10T18:02:38.295Z,1.40
2019-05-10T18:05:08.554Z,1.52
2019-05-10T18:07:37.982Z,1.70
2019-05-10T18:10:07.888Z,1.77
2019-05-10T18:12:37.241Z,1.77
2019-05-10T18:15:08.528Z,1.82
2019-05-10T18:17:37.879Z,1.50
2019-05-10T18:20:07.575Z,1.80
2019-05-10T18:22:43.108Z,1.60
2019-05-10T18:25:19.565Z,1.60
2019-05-10T18:27:39.103Z,2.00
2019-05-10T18:30:09.476Z,1.80
2019-05-10T18:32:38.828Z,1.98
2019-05-10T18:35:14.427Z,1.80
2019-05-10T18:37:42.034Z,1.70
2019-05-10T18:40:11.555Z,1.85
2019-05-10T18:42:40.960Z,1.80
2019-05-10T18:45:11.400Z,1.98
2019-05-10T18:47:40.755Z,2.33
2019-05-10T18:50:10.513Z,1.90
2019-05-10T18:52:39.947Z,2.22
2019-05-10T18:55:09.811Z,2.40
2019-05-10T18:57:39.143Z,2.30
2019-05-10T19:00:09.447Z,2.05
2019-05-10T19:02:38.859Z,2.72
2019-05-10T19:05:08.549Z,2.40
2019-05-10T19:07:37.974Z,2.40
2019-05-10T19:10:07.967Z,2.85
2019-05-10T19:12:37.983Z,3.70
2019-05-10T19:15:14.804Z,5.37
2019-05-10T19:20:16.247Z,9.40
2019-05-10T19:22:42.668Z,8.85
2019-05-10T19:25:14.463Z,5.65
2019-05-10T19:27:49.956Z,2.55
2019-05-10T19:32:50.960Z,2.65
2019-05-10T19:35:17.623Z,2.70
2019-05-10T19:37:47.044Z,3.20
2019-05-10T19:40:16.840Z,3.00
2019-05-10T19:42:49.285Z,2.80
2019-05-10T19:45:19.092Z,3.30
2019-05-10T19:47:49.846Z,3.08
2019-05-10T19:50:24.437Z,3.33
2019-05-10T19:52:51.810Z,3.47
2019-05-10T19:55:21.732Z,5.65
2019-05-10T19:57:54.931Z,6.05
2019-05-10T20:00:22.455Z,5.77
2019-05-10T20:02:51.832Z,5.87
2019-05-10T20:05:21.271Z,5.78
2019-05-10T20:07:51.678Z,5.87
2019-05-10T20:10:21.155Z,5.40
2019-05-10T20:12:50.549Z,4.12
2019-05-10T20:15:19.971Z,5.17
2019-05-10T20:17:49.495Z,5.37
2019-05-10T20:20:19.217Z,5.55
2019-05-10T20:22:49.635Z,5.85
2019-05-10T20:25:19.042Z,5.97
2019-05-10T20:27:48.352Z,5.60
2019-05-10T20:30:18.223Z,6.05
2019-05-10T20:32:47.588Z,4.65
2019-05-10T20:35:17.046Z,5.45
2019-05-10T20:38:00.632Z,5.75
2019-05-10T20:40:17.607Z,6.63
2019-05-10T20:42:46.943Z,6.75
2019-05-10T20:45:16.309Z,7.03
2019-05-10T20:47:45.704Z,7.65
2019-05-10T20:50:15.403Z,7.37
2019-05-10T20:52:44.724Z,7.42
2019-05-10T20:55:14.627Z,7.33
2019-05-10T20:57:44.075Z,6.60
2019-05-10T21:00:13.644Z,7.35
2019-05-10T21:02:42.974Z,7.47
2019-05-10T21:05:12.324Z,6.50
2019-05-10T21:07:41.659Z,7.08
2019-05-10T21:10:12.251Z,7.35
2019-05-10T21:12:41.659Z,8.10
2019-05-10T21:15:11.422Z,8.63
2019-05-10T21:17:40.791Z,6.87
2019-05-10T21:20:10.393Z,6.78
2019-05-10T21:22:39.795Z,6.92
2019-05-10T21:25:09.543Z,8.48
2019-05-10T21:27:38.877Z,7.35
2019-05-10T21:30:08.477Z,12.23
2019-05-10T21:32:37.900Z,8.48
2019-05-10T21:35:07.667Z,7.55
2019-05-10T21:37:37.058Z,7.58
2019-05-10T21:40:08.007Z,7.20
2019-05-10T21:42:37.325Z,6.90
2019-05-10T21:45:06.862Z,5.60
2019-05-10T21:47:50.621Z,5.95
2019-05-10T21:50:07.831Z,6.73
2019-05-10T21:52:37.183Z,6.78
2019-05-10T21:55:06.974Z,6.95
2019-05-10T21:57:36.404Z,7.65
2019-05-10T22:00:08.133Z,7.58
2019-05-10T22:02:39.152Z,8.23
2019-05-10T22:05:10.234Z,8.55
2019-05-10T22:07:39.672Z,8.00
2019-05-10T22:10:09.427Z,8.40
2019-05-10T22:12:38.861Z,8.83
2019-05-10T22:15:08.242Z,8.53
2019-05-10T22:17:37.686Z,8.88
2019-05-10T22:20:07.998Z,9.15
2019-05-10T22:22:37.503Z,10.13
2019-05-10T22:25:07.103Z,10.63
2019-05-10T22:27:36.457Z,10.80
2019-05-10T22:30:07.239Z,10.50
2019-05-10T22:32:36.593Z,9.15
2019-05-10T22:35:07.559Z,9.15
2019-05-10T22:37:37.008Z,9.05
2019-05-10T22:40:06.574Z,9.38
2019-05-10T22:42:35.927Z,9.15
2019-05-10T22:45:06.501Z,8.10
2019-05-10T22:47:35.932Z,7.65
2019-05-10T22:50:08.588Z,8.10
2019-05-10T22:52:37.911Z,7.83
2019-05-10T22:55:07.700Z,8.70
2019-05-10T22:57:37.145Z,8.60
2019-05-10T23:00:07.926Z,8.18
2019-05-10T23:02:38.950Z,8.33
2019-05-10T23:05:08.360Z,9.08
2019-05-10T23:07:37.788Z,10.15
2019-05-10T23:10:07.856Z,8.33
2019-05-10T23:12:37.221Z,9.30
2019-05-10T23:15:06.920Z,9.05
2019-05-10T23:17:36.323Z,8.65
2019-05-10T23:20:06.030Z,8.15
2019-05-10T23:22:35.460Z,8.18
2019-05-10T23:25:07.062Z,8.15
2019-05-10T23:27:36.449Z,8.20
2019-05-10T23:30:06.434Z,8.00
2019-05-10T23:32:35.792Z,9.00
2019-05-10T23:35:06.471Z,9.68
2019-05-10T23:37:35.874Z,9.23
2019-05-10T23:40:06.969Z,9.03
2019-05-10T23:42:36.370Z,8.58
2019-05-10T23:45:09.221Z,9.35
2019-05-10T23:47:38.668Z,9.63
2019-05-10T23:50:08.322Z,9.08
2019-05-10T23:52:37.696Z,8.78
2019-05-10T23:55:07.472Z,9.20
2019-05-10T23:57:36.890Z,10.72
